Time;durP1;ratioP1;P1;durP2;ratioP2;P2;SDS_P1;SDS_P2;PMS_P1;PMS_P2;Temp;Humidity;BMP_temperature;BMP_pressure;BME280_temperature;BME280_humidity;BME280_pressure;Samples;Min_cycle;Max_cycle;Signal;HPM_P1;HPM_P2
2023/06/04 00:01:39;;;;;;;36.33;22.27;;;;;;;-142.57;100.00;115900.28;4865787;29;20076;-81
2023/06/04 00:04:05;;;;;;;33.10;21.95;;;;;;;-142.57;100.00;115900.28;4883802;29;20044;-80
2023/06/04 00:06:30;;;;;;;30.80;21.98;;;;;;;-142.57;100.00;115900.28;4882395;29;20124;-81
2023/06/04 00:08:59;;;;;;;33.05;21.38;;;;;;;-142.57;100.00;115900.28;4882382;29;20072;-81
2023/06/04 00:11:26;;;;;;;38.22;22.40;;;;;;;-142.57;100.00;115900.28;4882631;29;20203;-81
2023/06/04 00:13:51;;;;;;;35.25;22.42;;;;;;;-142.57;100.00;115900.28;4883495;29;20021;-81
2023/06/04 00:16:17;;;;;;;31.02;22.00;;;;;;;-142.57;100.00;115900.28;4883683;29;20052;-81
2023/06/04 00:18:42;;;;;;;32.15;21.58;;;;;;;-142.57;100.00;115900.28;4883103;29;20037;-80
2023/06/04 00:21:08;;;;;;;34.10;22.95;;;;;;;-142.57;100.00;115900.28;4882628;29;20033;-81
2023/06/04 00:23:33;;;;;;;40.58;23.67;;;;;;;-142.57;100.00;115900.28;4865513;29;20523;-83
2023/06/04 00:25:59;;;;;;;29.73;20.75;;;;;;;-142.57;100.00;115900.28;4882864;29;20056;-82
2023/06/04 00:28:25;;;;;;;33.60;20.85;;;;;;;-142.57;100.00;115900.28;4865997;29;20563;-82
2023/06/04 00:30:51;;;;;;;35.95;21.70;;;;;;;-142.57;100.00;115900.28;4882948;29;20033;-81
2023/06/04 00:33:16;;;;;;;35.95;22.95;;;;;;;-142.57;100.00;115900.28;4884252;29;20080;-83
2023/06/04 00:35:41;;;;;;;32.35;21.05;;;;;;;-142.57;100.00;115900.28;4883889;29;20456;-81
2023/06/04 00:38:07;;;;;;;35.33;22.15;;;;;;;-142.57;100.00;115900.28;4883872;29;20037;-83
2023/06/04 00:40:32;;;;;;;38.42;22.55;;;;;;;-142.57;100.00;115900.28;4867042;29;20395;-81
2023/06/04 00:42:58;;;;;;;37.55;22.27;;;;;;;-142.57;100.00;115900.28;4867082;29;20467;-83
2023/06/04 00:45:25;;;;;;;39.15;22.58;;;;;;;-142.57;100.00;115900.28;4852021;29;20112;-82
2023/06/04 00:47:52;;;;;;;34.80;21.77;;;;;;;-142.57;100.00;115900.28;4886516;29;20041;-82
2023/06/04 00:50:20;;;;;;;33.92;22.60;;;;;;;-142.57;100.00;115900.28;4883634;29;20059;-83
2023/06/04 00:52:47;;;;;;;36.25;22.98;;;;;;;-142.57;100.00;115900.28;4882678;29;20104;-83
2023/06/04 00:55:12;;;;;;;38.80;23.25;;;;;;;-142.57;100.00;115900.28;4866905;29;20084;-85
2023/06/04 00:57:38;;;;;;;35.63;22.02;;;;;;;-142.57;100.00;115900.28;4884089;29;20037;-80
2023/06/04 01:00:07;;;;;;;38.50;22.65;;;;;;;-142.57;100.00;115900.28;4885057;29;20439;-81
2023/06/04 01:02:37;;;;;;;36.35;23.23;;;;;;;-142.57;100.00;115900.28;4866806;29;20048;-84
2023/06/04 01:05:37;;;;;;;40.80;24.35;;;;;;;-142.57;100.00;115900.28;4884340;29;20105;-82
2023/06/04 01:08:05;;;;;;;39.17;24.38;;;;;;;-142.57;100.00;115900.28;4867888;29;20089;-82
2023/06/04 01:10:31;;;;;;;43.15;25.77;;;;;;;-142.57;100.00;115900.28;4867394;29;20128;-84
2023/06/04 01:12:56;;;;;;;47.97;26.90;;;;;;;-142.57;100.00;115900.28;4882798;29;20515;-83
2023/06/04 01:15:22;;;;;;;42.40;26.88;;;;;;;-142.57;100.00;115900.28;4882897;29;20049;-81
2023/06/04 01:17:57;;;;;;;45.20;28.23;;;;;;;-142.57;100.00;115900.28;4869192;29;20029;-83
2023/06/04 01:20:32;;;;;;;51.33;28.58;;;;;;;-142.57;100.00;115900.28;4866947;29;20092;-85
2023/06/04 01:23:13;;;;;;;44.63;27.75;;;;;;;-142.57;100.00;115900.28;4867566;29;20100;-80
2023/06/04 01:25:41;;;;;;;41.58;28.25;;;;;;;-142.57;100.00;115900.28;4884763;29;20067;-82
2023/06/04 01:28:10;;;;;;;51.10;28.15;;;;;;;-142.57;100.00;115900.28;4885734;29;20439;-82
2023/06/04 01:30:45;;;;;;;49.17;30.98;;;;;;;-142.57;100.00;115900.28;4883495;29;20402;-83
2023/06/04 01:33:13;;;;;;;50.60;29.42;;;;;;;-142.57;100.00;115900.28;4883496;29;20033;-84
2023/06/04 01:35:39;;;;;;;50.25;30.02;;;;;;;-142.57;100.00;115900.28;4883741;29;20041;-83
2023/06/04 01:38:06;;;;;;;66.88;32.97;;;;;;;-142.57;100.00;115900.28;4883282;29;20033;-82
2023/06/04 01:40:32;;;;;;;55.67;33.42;;;;;;;-142.57;100.00;115900.28;4883221;29;20376;-83
2023/06/04 01:42:57;;;;;;;68.28;34.10;;;;;;;-142.57;100.00;115900.28;4866058;29;20047;-82
2023/06/04 01:45:25;;;;;;;52.08;32.03;;;;;;;-142.57;100.00;115900.28;4882986;29;20041;-83
2023/06/04 01:47:51;;;;;;;55.38;31.88;;;;;;;-142.57;100.00;115900.28;4866304;29;20041;-84
2023/06/04 01:50:17;;;;;;;56.78;33.17;;;;;;;-142.57;100.00;115900.28;4882112;29;20037;-82
2023/06/04 01:52:43;;;;;;;51.30;31.90;;;;;;;-142.57;100.00;115900.28;4866761;29;20048;-85
2023/06/04 01:55:11;;;;;;;49.90;31.58;;;;;;;-142.57;100.00;115900.28;4884073;29;20479;-85
2023/06/04 01:57:38;;;;;;;51.55;32.35;;;;;;;-142.57;100.00;115900.28;4884321;29;20045;-82
2023/06/04 02:00:07;;;;;;;56.80;33.17;;;;;;;-142.57;100.00;115900.28;4886225;29;20029;-80
2023/06/04 02:02:43;;;;;;;53.38;34.28;;;;;;;-142.57;100.00;115900.28;4885707;29;20064;-82
2023/06/04 02:05:10;;;;;;;54.72;34.55;;;;;;;-142.57;100.00;115900.28;4869893;29;20396;-83
2023/06/04 02:07:40;;;;;;;57.75;34.65;;;;;;;-142.57;100.00;115900.28;4889526;29;20101;-82
2023/06/04 02:10:10;;;;;;;56.08;34.85;;;;;;;-142.57;100.00;115900.28;4875294;29;20040;-82
2023/06/04 02:12:40;;;;;;;55.55;35.53;;;;;;;-142.57;100.00;115900.28;4871759;29;20052;-81
2023/06/04 02:15:07;;;;;;;60.83;35.65;;;;;;;-142.57;100.00;115900.28;4887759;29;20106;-82
2023/06/04 02:17:37;;;;;;;60.42;33.30;;;;;;;-142.57;100.00;115900.28;4882823;29;20061;-81
2023/06/04 02:20:03;;;;;;;57.13;34.40;;;;;;;-142.57;100.00;115900.28;4881819;29;20039;-82
2023/06/04 02:22:29;;;;;;;61.67;35.17;;;;;;;-142.57;100.00;115900.28;4864899;29;20045;-81
2023/06/04 02:24:55;;;;;;;57.15;35.42;;;;;;;-142.57;100.00;115900.28;4880893;29;20041;-82
2023/06/04 02:27:21;;;;;;;52.78;34.85;;;;;;;-142.57;100.00;115900.28;4881921;29;20402;-82
2023/06/04 02:29:46;;;;;;;64.07;36.63;;;;;;;-142.57;100.00;115900.28;4881141;29;20090;-82
2023/06/04 02:32:12;;;;;;;56.58;33.60;;;;;;;-142.57;100.00;115900.28;4880361;29;20090;-81
2023/06/04 02:34:37;;;;;;;51.70;32.17;;;;;;;-142.57;100.00;115900.28;4848414;29;20398;-81
2023/06/04 02:37:03;;;;;;;54.03;33.30;;;;;;;-142.57;100.00;115900.28;4880734;29;20041;-80
2023/06/04 02:39:29;;;;;;;53.97;32.08;;;;;;;-142.57;100.00;115900.28;4880351;29;20041;-80
2023/06/04 02:41:55;;;;;;;48.95;32.40;;;;;;;-142.57;100.00;115900.28;4880833;29;20033;-81
2023/06/04 02:44:20;;;;;;;64.28;33.00;;;;;;;-142.57;100.00;115900.28;4881208;29;20422;-80
2023/06/04 02:46:46;;;;;;;62.25;32.63;;;;;;;-142.57;100.00;115900.28;4881889;29;20029;-80
2023/06/04 02:49:16;;;;;;;55.92;32.08;;;;;;;-142.57;100.00;115900.28;4863468;29;20032;-82
2023/06/04 02:51:42;;;;;;;62.67;35.10;;;;;;;-142.57;100.00;115900.28;4879752;29;20112;-81
2023/06/04 02:54:08;;;;;;;51.75;31.67;;;;;;;-142.57;100.00;115900.28;4864106;29;20097;-82
2023/06/04 02:56:37;;;;;;;51.85;32.38;;;;;;;-142.57;100.00;115900.28;4880965;29;20509;-81
2023/06/04 02:59:03;;;;;;;59.80;32.78;;;;;;;-142.57;100.00;115900.28;4880913;29;20049;-82
2023/06/04 03:01:29;;;;;;;57.17;32.78;;;;;;;-142.57;100.00;115900.28;4881213;29;20044;-81
2023/06/04 03:03:55;;;;;;;56.40;32.83;;;;;;;-142.57;100.00;115900.28;4850629;29;20420;-84
2023/06/04 03:06:24;;;;;;;53.33;33.13;;;;;;;-142.57;100.00;115900.28;4891057;29;20065;-83
2023/06/04 03:08:50;;;;;;;53.10;33.72;;;;;;;-142.57;100.00;115900.28;4894757;29;20195;-81
2023/06/04 03:11:17;;;;;;;55.92;33.53;;;;;;;-142.57;100.00;115900.28;4880576;29;20067;-81
2023/06/04 03:13:42;;;;;;;58.42;32.22;;;;;;;-142.57;100.00;115900.28;4881038;29;20048;-82
2023/06/04 03:16:09;;;;;;;49.97;32.20;;;;;;;-142.57;100.00;115900.28;4897964;29;20033;-83
2023/06/04 03:18:40;;;;;;;56.08;33.08;;;;;;;-142.57;100.00;115900.28;4897267;29;20049;-82
2023/06/04 03:21:06;;;;;;;50.90;33.78;;;;;;;-142.57;100.00;115900.28;4881590;29;20048;-82
2023/06/04 03:23:33;;;;;;;54.25;33.10;;;;;;;-142.57;100.00;115900.28;4881600;29;21016;-81
2023/06/04 03:26:01;;;;;;;60.25;32.95;;;;;;;-142.57;100.00;115900.28;4881479;29;20032;-81
2023/06/04 03:28:27;;;;;;;55.13;32.63;;;;;;;-142.57;100.00;115900.28;4901447;29;20044;-81
2023/06/04 03:30:52;;;;;;;59.50;33.70;;;;;;;-142.57;100.00;115900.28;4885688;29;20119;-83
2023/06/04 03:33:19;;;;;;;61.08;33.00;;;;;;;-142.57;100.00;115900.28;4884051;29;20037;-82
2023/06/04 03:35:45;;;;;;;53.88;33.85;;;;;;;-142.57;100.00;115900.28;4882669;29;20051;-82
2023/06/04 03:38:11;;;;;;;61.22;33.53;;;;;;;-142.57;100.00;115900.28;4881832;29;20041;-82
2023/06/04 03:40:37;;;;;;;55.72;33.15;;;;;;;-142.57;100.00;115900.28;4879183;29;20499;-81
2023/06/04 03:43:04;;;;;;;55.65;33.80;;;;;;;-142.57;100.00;115900.28;4867227;29;20056;-82
2023/06/04 03:45:33;;;;;;;51.03;31.88;;;;;;;-142.57;100.00;115900.28;4867086;29;20048;-82
2023/06/04 03:48:00;;;;;;;56.78;32.47;;;;;;;-142.57;100.00;115900.28;4865744;29;20097;-82
2023/06/04 03:50:27;;;;;;;66.60;32.72;;;;;;;-142.57;100.00;115900.28;4865269;29;20037;-83
2023/06/04 03:52:53;;;;;;;50.63;32.22;;;;;;;-142.57;100.00;115900.28;4892913;29;20041;-82
2023/06/04 03:55:19;;;;;;;50.00;28.33;;;;;;;-142.57;100.00;115900.28;4863837;29;20157;-79
2023/06/04 03:57:46;;;;;;;45.30;24.40;;;;;;;-142.57;100.00;115900.28;4863661;29;20033;-82
2023/06/04 04:00:14;;;;;;;42.10;21.67;;;;;;;-142.57;100.00;115900.28;4863635;29;20056;-82
2023/06/04 04:02:40;;;;;;;32.47;18.75;;;;;;;-142.57;100.00;115900.28;4882236;29;20025;-81
2023/06/04 04:05:09;;;;;;;34.47;18.95;;;;;;;-142.57;100.00;115900.28;4863614;29;20109;-81
2023/06/04 04:07:35;;;;;;;28.75;18.27;;;;;;;-142.57;100.00;115900.28;4860210;29;20037;-81
2023/06/04 04:10:01;;;;;;;40.67;20.13;;;;;;;-142.57;100.00;115900.28;4863878;29;20075;-83
2023/06/04 04:12:27;;;;;;;35.60;18.75;;;;;;;-142.57;100.00;115900.28;4849270;29;20547;-82
2023/06/04 04:14:53;;;;;;;39.75;23.77;;;;;;;-142.57;100.00;115900.28;4862882;29;20033;-81
2023/06/04 04:17:20;;;;;;;50.03;30.02;;;;;;;-142.57;100.00;115900.28;4866281;29;20494;-82
2023/06/04 04:19:49;;;;;;;62.20;34.60;;;;;;;-142.57;100.00;115900.28;4864704;29;20041;-82
2023/06/04 04:22:17;;;;;;;57.80;34.58;;;;;;;-142.57;100.00;115900.28;4882650;29;20056;-82
2023/06/04 04:24:44;;;;;;;63.90;35.38;;;;;;;-142.57;100.00;115900.28;4862576;29;20558;-82
2023/06/04 04:27:10;;;;;;;59.72;32.30;;;;;;;-142.57;100.00;115900.28;4866796;29;20060;-82
2023/06/04 04:29:38;;;;;;;65.10;34.35;;;;;;;-142.57;100.00;115900.28;4897603;29;20044;-82
2023/06/04 04:32:16;;;;;;;65.28;35.05;;;;;;;-142.57;100.00;115900.28;4848472;29;20051;-81
2023/06/04 04:34:53;;;;;;;57.08;32.60;;;;;;;-142.57;100.00;115900.28;4884706;29;20376;-81
2023/06/04 04:37:23;;;;;;;41.40;22.83;;;;;;;-142.57;100.00;115900.28;4849671;29;20090;-81
2023/06/04 04:39:51;;;;;;;30.45;15.52;;;;;;;-142.57;100.00;115900.28;4854420;29;20067;-83
2023/06/04 04:42:19;;;;;;;32.38;15.80;;;;;;;-142.57;100.00;115900.28;4867376;29;20033;-82
2023/06/04 04:44:47;;;;;;;34.60;18.05;;;;;;;-142.57;100.00;115900.28;4868808;29;20041;-82
2023/06/04 04:47:17;;;;;;;43.20;21.65;;;;;;;-142.57;100.00;115900.28;4869429;29;20095;-81
2023/06/04 04:49:42;;;;;;;50.92;21.75;;;;;;;-142.57;100.00;115900.28;4851663;29;20132;-83
2023/06/04 04:52:08;;;;;;;44.00;21.45;;;;;;;-142.57;100.00;115900.28;4868764;29;20526;-83
2023/06/04 04:54:35;;;;;;;45.53;23.27;;;;;;;-142.57;100.00;115900.28;4868216;29;20041;-82
2023/06/04 04:57:01;;;;;;;46.00;22.38;;;;;;;-142.57;100.00;115900.28;4865651;29;20119;-81
2023/06/04 04:59:27;;;;;;;44.08;20.45;;;;;;;-142.57;100.00;115900.28;4865574;29;20045;-82
2023/06/04 05:01:54;;;;;;;41.05;20.33;;;;;;;-142.57;100.00;115900.28;4866047;29;20091;-82
2023/06/04 05:04:20;;;;;;;47.97;24.23;;;;;;;-142.57;100.00;115900.28;4865465;29;20132;-81
2023/06/04 05:06:46;;;;;;;39.10;22.23;;;;;;;-142.57;100.00;115900.28;4866220;29;20033;-83
2023/06/04 05:09:12;;;;;;;42.83;22.90;;;;;;;-142.57;100.00;115900.28;4899103;29;20075;-84
2023/06/04 05:11:37;;;;;;;52.35;23.95;;;;;;;-142.57;100.00;115900.28;4898724;29;20112;-83
2023/06/04 05:14:03;;;;;;;45.10;26.13;;;;;;;-142.57;100.00;115900.28;4884091;29;20148;-83
2023/06/04 05:16:29;;;;;;;52.53;27.20;;;;;;;-142.57;100.00;115900.28;4850503;29;20045;-82
2023/06/04 05:18:56;;;;;;;60.50;29.42;;;;;;;-142.57;100.00;115900.28;4866324;29;20507;-82
2023/06/04 05:21:25;;;;;;;67.10;32.10;;;;;;;-142.57;100.00;115900.28;4866180;29;20058;-82
2023/06/04 05:23:56;;;;;;;59.85;30.50;;;;;;;-142.57;100.00;115900.28;4850975;29;20116;-81
2023/06/04 05:26:27;;;;;;;64.47;31.67;;;;;;;-142.57;100.00;115900.28;4866984;29;20044;-82
2023/06/04 05:28:55;;;;;;;58.97;32.42;;;;;;;-142.57;100.00;115900.28;4866485;29;20041;-82
2023/06/04 05:31:21;;;;;;;59.55;34.50;;;;;;;-142.57;100.00;115900.28;4866758;29;20043;-82
2023/06/04 05:33:47;;;;;;;73.10;36.67;;;;;;;-142.57;100.00;115900.28;4895892;29;20041;-82
2023/06/04 05:36:16;;;;;;;81.93;36.70;;;;;;;-142.57;100.00;115900.28;4845703;29;20037;-80
2023/06/04 05:38:56;;;;;;;74.28;38.30;;;;;;;-142.57;100.00;115900.28;4846192;29;20066;-81
2023/06/04 05:41:24;;;;;;;71.53;37.03;;;;;;;-142.57;100.00;115900.28;4848093;29;20124;-81
2023/06/04 05:43:50;;;;;;;70.65;36.60;;;;;;;-142.57;100.00;115900.28;4865184;29;20034;-82
2023/06/04 05:46:16;;;;;;;68.05;36.50;;;;;;;-142.57;100.00;115900.28;4846805;29;20053;-82
2023/06/04 05:48:46;;;;;;;62.65;36.40;;;;;;;-142.57;100.00;115900.28;4847068;29;20034;-84
2023/06/04 05:51:15;;;;;;;65.33;34.80;;;;;;;-142.57;100.00;115900.28;4852265;29;20070;-83
2023/06/04 05:53:47;;;;;;;62.70;34.40;;;;;;;-142.57;100.00;115900.28;4864134;29;20112;-81
2023/06/04 05:56:13;;;;;;;61.47;34.10;;;;;;;-142.57;100.00;115900.28;4852390;29;20072;-84
2023/06/04 05:58:40;;;;;;;62.10;34.92;;;;;;;-142.57;100.00;115900.28;4864728;29;20044;-83
2023/06/04 06:01:07;;;;;;;58.10;33.63;;;;;;;-142.57;100.00;115900.28;4862613;29;20104;-82
2023/06/04 06:03:36;;;;;;;61.85;33.58;;;;;;;-142.57;100.00;115900.28;4865277;29;20025;-81
2023/06/04 06:06:02;;;;;;;60.75;34.55;;;;;;;-142.57;100.00;115900.28;4890686;29;20495;-81
2023/06/04 06:08:28;;;;;;;50.53;32.97;;;;;;;-142.57;100.00;115900.28;4862829;29;20056;-82
2023/06/04 06:10:54;;;;;;;55.33;31.67;;;;;;;-142.57;100.00;115900.28;4870460;29;20169;-80
2023/06/04 06:13:19;;;;;;;50.83;32.08;;;;;;;-142.57;100.00;115900.28;4890393;29;20040;-81
2023/06/04 06:15:48;;;;;;;51.03;29.67;;;;;;;-142.57;100.00;115900.28;4869819;29;20060;-79
2023/06/04 06:18:15;;;;;;;51.90;29.05;;;;;;;-142.57;100.00;115900.28;4882437;23;20064;-89
2023/06/04 06:20:46;;;;;;;43.58;24.58;;;;;;;-142.57;100.00;115900.28;4878866;29;20479;-84
2023/06/04 06:23:12;;;;;;;34.23;23.50;;;;;;;-142.57;100.00;115900.28;4880245;29;20036;-85
2023/06/04 06:25:41;;;;;;;38.15;22.30;;;;;;;-142.57;100.00;115900.28;4864977;29;20432;-85
2023/06/04 06:28:13;;;;;;;37.05;22.48;;;;;;;-142.57;100.00;115900.28;4874369;29;20044;-87
2023/06/04 06:30:39;;;;;;;40.00;22.75;;;;;;;-142.57;100.00;115900.28;4873015;29;20033;-85
2023/06/04 06:33:05;;;;;;;35.83;22.38;;;;;;;-142.57;100.00;115900.28;4865178;29;20041;-89
2023/06/04 06:35:30;;;;;;;33.67;20.02;;;;;;;-142.57;100.00;115900.28;4877157;29;20044;-86
2023/06/04 06:37:58;;;;;;;29.50;20.15;;;;;;;-142.57;100.00;115900.28;4862833;29;20041;-84
2023/06/04 06:40:24;;;;;;;25.63;16.27;;;;;;;-142.57;100.00;115900.28;4878918;29;20617;-86
2023/06/04 06:42:53;;;;;;;25.13;16.05;;;;;;;-142.57;100.00;115900.28;4875445;29;20064;-85
2023/06/04 06:45:19;;;;;;;24.10;15.00;;;;;;;-142.57;100.00;115900.28;4880439;29;20040;-84
2023/06/04 06:47:45;;;;;;;27.48;15.13;;;;;;;-142.57;100.00;115900.28;4882001;29;20041;-88
2023/06/04 06:50:11;;;;;;;28.50;15.75;;;;;;;-142.57;100.00;115900.28;4870163;29;20059;-86
2023/06/04 06:52:37;;;;;;;21.80;15.65;;;;;;;-142.57;100.00;115900.28;4883042;29;20041;-85
2023/06/04 06:55:05;;;;;;;23.33;16.80;;;;;;;-142.57;100.00;115900.28;4861445;29;20064;-85
2023/06/04 06:57:33;;;;;;;34.58;16.23;;;;;;;-142.57;100.00;115900.28;4874693;29;20041;-90
2023/06/04 07:00:03;;;;;;;26.30;16.55;;;;;;;-142.57;100.00;115900.28;4876243;29;20100;-88
2023/06/04 07:02:31;;;;;;;24.35;15.82;;;;;;;-142.57;100.00;115900.28;4861138;29;20141;-86
2023/06/04 07:04:57;;;;;;;21.77;15.00;;;;;;;-142.57;100.00;115900.28;4854143;29;20036;-88
2023/06/04 07:07:23;;;;;;;24.55;16.30;;;;;;;-142.57;100.00;115900.28;4857237;29;20483;-81
2023/06/04 07:09:48;;;;;;;26.40;16.08;;;;;;;-142.57;100.00;115900.28;4875996;29;20041;-84
2023/06/04 07:12:17;;;;;;;24.90;15.50;;;;;;;-142.57;100.00;115900.28;4874904;29;20029;-90
2023/06/04 07:14:43;;;;;;;21.58;15.07;;;;;;;-142.57;100.00;115900.28;4863240;29;20052;-90
2023/06/04 07:17:15;;;;;;;20.95;15.38;;;;;;;-142.57;100.00;115900.28;4874358;29;20045;-93
2023/06/04 07:19:40;;;;;;;23.73;15.30;;;;;;;-142.57;100.00;115900.28;4859139;29;20048;-86
2023/06/04 07:22:06;;;;;;;22.75;14.88;;;;;;;-142.57;100.00;115900.28;4862710;29;20301;-89
2023/06/04 07:24:34;;;;;;;23.98;14.50;;;;;;;-142.57;100.00;115900.28;4862548;29;20029;-86
2023/06/04 07:27:00;;;;;;;24.13;15.38;;;;;;;-142.57;100.00;115900.28;4860402;29;20048;-93
2023/06/04 07:29:26;;;;;;;19.65;14.75;;;;;;;-142.57;100.00;115900.28;4847083;29;20034;-90
2023/06/04 07:31:52;;;;;;;20.90;14.18;;;;;;;-142.57;100.00;115900.28;4877948;29;20017;-84
2023/06/04 07:34:24;;;;;;;27.42;14.63;;;;;;;-142.57;100.00;115900.28;4864065;29;20047;-90
2023/06/04 07:36:50;;;;;;;23.55;14.85;;;;;;;-142.57;100.00;115900.28;4881092;29;20490;-90
2023/06/04 07:39:18;;;;;;;18.30;14.48;;;;;;;-142.57;100.00;115900.28;4857613;29;20049;-84
2023/06/04 07:41:43;;;;;;;24.85;15.07;;;;;;;-142.57;100.00;115900.28;4860912;29;20674;-89
2023/06/04 07:44:10;;;;;;;23.33;14.57;;;;;;;-142.57;100.00;115900.28;4882806;29;20033;-86
2023/06/04 07:46:35;;;;;;;21.13;14.50;;;;;;;-142.57;100.00;115900.28;4881179;29;20486;-87
2023/06/04 07:49:04;;;;;;;21.75;15.48;;;;;;;-142.57;100.00;115900.28;4857673;23;20112;-89
2023/06/04 07:51:31;;;;;;;24.27;14.90;;;;;;;-142.57;100.00;115900.28;4849608;29;20045;-83
2023/06/04 07:53:56;;;;;;;22.30;13.48;;;;;;;-142.57;100.00;115900.28;4872382;29;20119;-82
2023/06/04 07:56:22;;;;;;;22.15;15.02;;;;;;;-142.57;98.69;115900.28;4870600;29;20595;-81
2023/06/04 07:58:50;;;;;;;21.90;13.55;;;;;;;-142.57;97.54;115900.28;4865154;29;20037;-85
2023/06/04 08:01:16;;;;;;;17.80;12.77;;;;;;;-142.57;100.00;115900.28;4859205;29;20115;-83
2023/06/04 08:03:41;;;;;;;19.98;12.45;;;;;;;-142.57;100.00;115900.28;4876477;29;20037;-81
2023/06/04 08:06:07;;;;;;;18.13;12.43;;;;;;;-142.57;95.49;115900.28;4871018;29;20511;-81
2023/06/04 08:08:36;;;;;;;19.10;11.35;;;;;;;-142.57;90.22;115900.28;4874002;29;20044;-83
2023/06/04 08:11:02;;;;;;;21.52;11.45;;;;;;;-142.57;83.44;115900.28;4855041;29;20064;-84
2023/06/04 08:13:28;;;;;;;16.73;11.27;;;;;;;-142.57;84.95;115900.28;4872440;29;20029;-80
2023/06/04 08:15:53;;;;;;;19.98;10.32;;;;;;;-142.57;83.85;115900.28;4874118;29;20093;-85
2023/06/04 08:18:19;;;;;;;20.10;9.82;;;;;;;-142.57;83.79;115900.28;4875604;29;20462;-84
2023/06/04 08:20:45;;;;;;;22.23;11.18;;;;;;;-142.57;73.90;115900.28;4865062;29;20445;-89
2023/06/04 08:23:13;;;;;;;15.55;11.38;;;;;;;-142.57;74.11;115900.28;4851460;29;20072;-89
2023/06/04 08:25:39;;;;;;;19.45;14.27;;;;;;;-142.57;74.34;115900.28;4858442;29;20119;-89
2023/06/04 08:28:05;;;;;;;19.27;14.60;;;;;;;-142.57;74.36;115900.28;4855056;29;20130;-85
2023/06/04 08:30:30;;;;;;;18.60;13.85;;;;;;;-142.57;74.35;115900.28;4856469;29;20089;-83
2023/06/04 08:32:56;;;;;;;21.58;12.48;;;;;;;-142.57;71.44;115900.28;4876382;29;20057;-88
2023/06/04 08:35:21;;;;;;;19.60;12.32;;;;;;;-142.57;69.31;115900.28;4860304;29;20033;-89
2023/06/04 08:38:06;;;;;;;18.77;13.15;;;;;;;-142.57;67.89;115900.28;4860671;29;20037;-88
2023/06/04 08:40:43;;;;;;;20.75;11.63;;;;;;;-142.57;64.51;115900.28;4883099;29;20041;-86
2023/06/04 08:43:10;;;;;;;15.27;11.48;;;;;;;-142.57;63.06;115900.28;4875938;29;20093;-87
2023/06/04 08:45:40;;;;;;;17.08;13.00;;;;;;;-142.57;62.05;115900.28;4861698;29;20085;-82
2023/06/04 08:48:11;;;;;;;16.98;11.73;;;;;;;-142.57;65.02;115900.28;4843218;29;20049;-81
2023/06/04 08:50:39;;;;;;;21.73;11.57;;;;;;;-142.57;64.65;115900.28;4874725;29;20035;-82
2023/06/04 08:53:05;;;;;;;19.23;12.52;;;;;;;-142.57;65.80;115900.28;4881402;29;20049;-82
2023/06/04 08:55:31;;;;;;;17.80;12.63;;;;;;;-142.57;63.90;115900.28;4873166;29;20047;-81
2023/06/04 08:57:56;;;;;;;19.52;12.90;;;;;;;-142.57;63.89;115900.28;4875184;29;20044;-83
2023/06/04 09:00:22;;;;;;;18.55;13.23;;;;;;;-142.57;64.47;115900.28;4878982;29;20044;-80
2023/06/04 09:02:50;;;;;;;19.02;12.55;;;;;;;-142.57;62.05;115900.28;4871747;29;20101;-83
2023/06/04 09:05:25;;;;;;;18.88;11.60;;;;;;;-142.57;59.63;115900.28;4876605;29;20458;-83
2023/06/04 09:07:55;;;;;;;13.38;9.85;;;;;;;-142.57;60.83;115900.28;4882030;29;20033;-85
2023/06/04 09:10:25;;;;;;;27.95;14.63;;;;;;;-142.57;59.99;115900.28;4857481;29;20049;-83
2023/06/04 09:12:51;;;;;;;19.77;11.57;;;;;;;-142.57;56.58;115900.28;4885083;29;20042;-81
2023/06/04 09:15:17;;;;;;;19.92;12.50;;;;;;;-142.57;56.83;115900.28;4896107;29;20041;-85
2023/06/04 09:17:44;;;;;;;17.90;12.80;;;;;;;-142.57;61.34;115900.28;4888983;29;20029;-82
2023/06/04 09:20:23;;;;;;;15.05;11.73;;;;;;;-142.57;60.40;115900.28;4875068;29;20105;-81
2023/06/04 09:22:49;;;;;;;14.82;11.90;;;;;;;-142.57;59.86;115900.28;4874131;29;20037;-82
2023/06/04 09:25:45;;;;;;;19.60;13.82;;;;;;;-142.57;59.65;115900.28;4879533;29;20072;-85
2023/06/04 09:28:11;;;;;;;21.48;14.38;;;;;;;-142.57;62.54;115900.28;4858684;29;20037;-88
2023/06/04 09:30:53;;;;;;;20.85;14.10;;;;;;;-142.57;62.12;115900.28;4859188;29;20040;-90
2023/06/04 09:33:20;;;;;;;17.23;13.67;;;;;;;-142.57;62.59;115900.28;4889894;29;20036;-91
2023/06/04 09:35:59;;;;;;;20.70;13.95;;;;;;;-142.57;62.80;115900.28;4882570;29;20368;-88
2023/06/04 09:38:43;;;;;;;19.90;13.95;;;;;;;-142.57;63.03;115900.28;4883803;29;20570;-89
2023/06/04 09:41:21;;;;;;;18.70;14.30;;;;;;;-142.57;63.00;115900.28;4869312;29;20036;-88
2023/06/04 09:43:50;;;;;;;19.30;14.07;;;;;;;-142.57;63.43;115900.28;4864562;29;20041;-89
2023/06/04 09:46:20;;;;;;;18.15;12.98;;;;;;;-142.57;62.35;115900.28;4855649;29;20108;-89
2023/06/04 09:48:48;;;;;;;19.45;13.57;;;;;;;-142.57;64.33;115900.28;4877442;29;20024;-86
2023/06/04 09:54:07;;;;;;;18.40;12.00;;;;;;;-142.57;61.17;115900.28;4874444;29;20108;-86
2023/06/04 09:56:40;;;;;;;18.27;11.50;;;;;;;-142.57;60.76;115900.28;4882928;29;20042;-84
2023/06/04 09:59:28;;;;;;;18.52;12.32;;;;;;;-142.57;61.74;115900.28;4848789;29;20122;-87
2023/06/04 10:01:58;;;;;;;16.15;10.73;;;;;;;-142.57;62.53;115900.28;4867977;29;20038;-83
2023/06/04 10:04:25;;;;;;;19.65;10.43;;;;;;;-142.57;60.15;115900.28;4867481;29;20053;-85
2023/06/04 10:06:51;;;;;;;15.48;11.05;;;;;;;-142.57;58.01;115900.28;4866872;29;20050;-80
2023/06/04 10:09:21;;;;;;;15.27;10.93;;;;;;;-142.57;59.06;115900.28;4851160;29;20047;-82
2023/06/04 10:11:56;;;;;;;14.57;11.10;;;;;;;-142.57;60.36;115900.28;4860197;29;20049;-86
2023/06/04 10:14:27;;;;;;;15.05;11.80;;;;;;;-142.57;61.71;115900.28;4858720;29;20046;-89
2023/06/04 10:16:56;;;;;;;16.70;12.10;;;;;;;-142.57;62.51;115900.28;4857457;29;20030;-84
2023/06/04 10:19:30;;;;;;;19.98;12.57;;;;;;;-142.57;61.75;115900.28;4854605;29;20078;-84
2023/06/04 10:21:56;;;;;;;16.83;12.18;;;;;;;-142.57;59.67;115900.28;4821922;29;20046;-85
2023/06/04 10:24:23;;;;;;;15.30;11.75;;;;;;;-142.57;59.67;115900.28;4858422;29;20071;-86
2023/06/04 10:26:51;;;;;;;14.48;11.10;;;;;;;-142.57;60.52;115900.28;4856080;29;20058;-87
2023/06/04 10:29:18;;;;;;;18.48;10.77;;;;;;;-142.57;57.73;115900.28;4837429;29;20053;-86
2023/06/04 10:31:46;;;;;;;14.60;11.18;;;;;;;-142.57;56.37;115900.28;4852005;29;20049;-87
2023/06/04 10:34:17;;;;;;;18.63;12.90;;;;;;;-142.57;57.30;115900.28;4853136;29;20050;-85
2023/06/04 10:36:45;;;;;;;17.52;13.02;;;;;;;-142.57;58.58;115900.28;4841152;29;20053;-82
2023/06/04 10:39:35;;;;;;;20.90;12.82;;;;;;;-142.57;62.22;115900.28;4858232;29;20052;-84
2023/06/04 10:42:03;;;;;;;19.30;12.63;;;;;;;-142.57;61.28;115900.28;4843907;29;20070;-85
2023/06/04 10:44:45;;;;;;;16.33;12.52;;;;;;;-142.57;59.49;115900.28;4791899;30;20063;-83
2023/06/04 10:47:26;;;;;;;14.88;12.25;;;;;;;-142.57;59.55;115900.28;4798035;29;20140;-81
2023/06/04 10:49:55;;;;;;;15.82;12.20;;;;;;;-142.57;57.71;115900.28;4857726;29;20034;-79
2023/06/04 10:52:23;;;;;;;18.45;13.85;;;;;;;-142.57;58.75;115900.28;4855540;29;20400;-82
2023/06/04 10:54:53;;;;;;;19.38;13.27;;;;;;;-142.57;59.81;115900.28;4858657;29;20042;-83
2023/06/04 10:57:19;;;;;;;16.77;13.43;;;;;;;-142.57;59.14;115900.28;4841351;29;20042;-84